Time;durP1;ratioP1;P1;durP2;ratioP2;P2;SDS_P1;SDS_P2;PMS_P1;PMS_P2;Temp;Humidity;BMP_temperature;BMP_pressure;BME280_temperature;BME280_humidity;BME280_pressure;Samples;Min_cycle;Max_cycle;Signal;HPM_P1;HPM_P2
2022/03/20 00:00:37;;;;;;;;;;;;;;;7.45;40.50;103654.06;5072381;28;19917;-74
2022/03/20 00:03:05;;;;;;;;;;;;;;;7.53;40.50;103647.78;5071273;28;19939;-74
2022/03/20 00:05:31;;;;;;;;;;;;;;;7.59;40.37;103652.47;5062644;28;19924;-74
2022/03/20 00:07:56;;;;;;;;;;;;;;;7.71;40.51;103646.50;5060990;28;19916;-73
2022/03/20 00:10:21;;;;;;;;;;;;;;;7.16;42.10;103643.03;5070242;28;19967;-74
2022/03/20 00:12:46;;;;;;;;;;;;;;;7.14;42.13;103640.53;5072155;28;19939;-74
2022/03/20 00:15:12;;;;;;;;;;;;;;;7.93;39.73;103639.44;5071677;28;20307;-73
2022/03/20 00:17:37;;;;;;;;;;;;;;;7.53;40.38;103628.84;5071487;28;19921;-73
2022/03/20 00:20:03;;;;;;;;;;;;;;;8.05;39.71;103636.13;5071229;28;19955;-73
2022/03/20 00:22:30;;;;;;;;;;;;;;;7.70;40.04;103633.19;5070866;28;19920;-74
2022/03/20 00:24:55;;;;;;;;;;;;;;;7.19;41.16;103616.53;5061834;28;19917;-74
2022/03/20 00:27:21;;;;;;;;;;;;;;;7.75;40.09;103626.22;5053847;28;19923;-73
2022/03/20 00:29:46;;;;;;;;;;;;;;;7.45;41.06;103624.34;5072668;28;20004;-75
2022/03/20 00:32:12;;;;;;;;;;;;;;;7.08;42.03;103611.50;5072100;28;19920;-72
2022/03/20 00:34:38;;;;;;;;;;;;;;;7.08;41.93;103606.13;5072729;28;20441;-73
2022/03/20 00:37:05;;;;;;;;;;;;;;;6.74;42.77;103607.34;5053898;28;19916;-72
2022/03/20 00:39:31;;;;;;;;;;;;;;;6.61;43.14;103602.50;5071453;28;19956;-73
2022/03/20 00:41:56;;;;;;;;;;;;;;;7.04;42.33;103606.63;5083627;28;19962;-73
2022/03/20 00:44:21;;;;;;;;;;;;;;;6.79;42.96;103599.59;5092502;28;19938;-72
2022/03/20 00:46:48;;;;;;;;;;;;;;;7.01;42.21;103588.88;5092460;28;19924;-73
2022/03/20 00:49:13;;;;;;;;;;;;;;;6.72;42.82;103602.13;5092619;28;19962;-73
2022/03/20 00:51:39;;;;;;;;;;;;;;;6.86;42.29;103587.94;5092618;28;19996;-73
2022/03/20 00:54:04;;;;;;;;;;;;;;;6.91;42.80;103584.72;5082820;28;20443;-72
2022/03/20 00:56:29;;;;;;;;;;;;;;;7.53;41.14;103572.13;5071940;28;20445;-72
2022/03/20 00:58:54;;;;;;;;;;;;;;;6.35;43.91;103570.34;5072144;28;19923;-73
2022/03/20 01:01:20;;;;;;;;;;;;;;;6.46;43.82;103571.81;5069976;28;20073;-73
2022/03/20 01:03:45;;;;;;;;;;;;;;;6.65;43.15;103560.66;5072226;28;19927;-73
2022/03/20 01:06:11;;;;;;;;;;;;;;;6.54;43.71;103569.09;5072044;28;20011;-73
2022/03/20 01:08:39;;;;;;;;;;;;;;;6.60;43.70;103563.03;5071992;28;19931;-73
2022/03/20 01:11:05;;;;;;;;;;;;;;;7.26;41.62;103551.88;5071949;28;19925;-73
2022/03/20 01:13:31;;;;;;;;;;;;;;;7.34;40.74;103556.38;5072322;28;19924;-73
2022/03/20 01:15:58;;;;;;;;;;;;;;;6.90;42.28;103551.47;5072656;28;19924;-74
2022/03/20 01:18:26;;;;;;;;;;;;;;;7.38;40.97;103542.34;5071895;28;19924;-73
2022/03/20 01:20:54;;;;;;;;;;;;;;;7.15;41.80;103545.00;5070642;28;19948;-72
2022/03/20 01:23:21;;;;;;;;;;;;;;;7.13;42.03;103538.06;5072079;28;19920;-73
2022/03/20 01:25:47;;;;;;;;;;;;;;;7.36;41.31;103530.88;5072272;28;19927;-73
2022/03/20 01:28:12;;;;;;;;;;;;;;;7.00;41.76;103533.22;5071990;28;19913;-75
2022/03/20 01:30:38;;;;;;;;;;;;;;;6.99;42.28;103534.22;5072454;28;19921;-74
2022/03/20 01:33:03;;;;;;;;;;;;;;;7.15;41.76;103520.69;5072065;28;19917;-72
2022/03/20 01:35:28;;;;;;;;;;;;;;;6.97;42.18;103527.34;5071851;28;20007;-73
2022/03/20 01:37:53;;;;;;;;;;;;;;;6.90;41.80;103519.09;5072308;28;19947;-74
2022/03/20 01:40:19;;;;;;;;;;;;;;;7.03;42.21;103522.09;5072007;28;20042;-73
2022/03/20 01:42:44;;;;;;;;;;;;;;;6.77;42.71;103513.41;5072544;28;19922;-73
2022/03/20 01:45:12;;;;;;;;;;;;;;;7.17;41.85;103507.84;5072020;28;19924;-72
2022/03/20 01:47:38;;;;;;;;;;;;;;;7.30;41.22;103498.34;5072086;28;19917;-72
2022/03/20 01:50:03;;;;;;;;;;;;;;;6.97;42.58;103498.47;5072036;28;19921;-73
2022/03/20 01:52:28;;;;;;;;;;;;;;;7.10;41.95;103487.16;5071261;28;19947;-73
2022/03/20 01:54:53;;;;;;;;;;;;;;;6.06;44.71;103480.22;5072033;28;19938;-73
2022/03/20 01:57:23;;;;;;;;;;;;;;;6.91;42.80;103487.56;5071762;28;19965;-73
2022/03/20 01:59:49;;;;;;;;;;;;;;;7.11;41.64;103483.41;5071804;28;20295;-73
2022/03/20 02:02:14;;;;;;;;;;;;;;;6.78;42.37;103477.31;5071804;28;19916;-72
2022/03/20 02:04:39;;;;;;;;;;;;;;;6.38;43.93;103475.59;5074957;28;19934;-74
2022/03/20 02:07:06;;;;;;;;;;;;;;;6.42;43.12;103469.88;5075231;28;20007;-73
2022/03/20 02:09:32;;;;;;;;;;;;;;;6.47;43.33;103460.25;5075631;28;19913;-72
2022/03/20 02:11:57;;;;;;;;;;;;;;;6.86;42.24;103455.69;5074932;28;19931;-73
2022/03/20 02:14:23;;;;;;;;;;;;;;;6.59;42.70;103449.91;5074987;28;20316;-72
2022/03/20 02:16:49;;;;;;;;;;;;;;;6.92;41.56;103446.88;5074869;28;19924;-73
2022/03/20 02:19:14;;;;;;;;;;;;;;;7.14;41.08;103438.03;5074595;28;19974;-72
2022/03/20 02:21:41;;;;;;;;;;;;;;;6.35;42.81;103443.59;5075311;28;19916;-73
2022/03/20 02:24:25;;;;;;;;;;;;;;;6.31;42.80;103433.31;5074586;28;20020;-72
2022/03/20 02:26:50;;;;;;;;;;;;;;;6.61;41.68;103427.16;5073143;28;19917;-73
2022/03/20 02:29:15;;;;;;;;;;;;;;;6.51;42.12;103412.19;5074620;28;19931;-73
2022/03/20 02:31:40;;;;;;;;;;;;;;;5.98;43.79;103416.41;5074103;28;19920;-74
2022/03/20 02:34:07;;;;;;;;;;;;;;;6.67;42.09;103418.34;5074297;28;19931;-71
2022/03/20 02:36:33;;;;;;;;;;;;;;;6.51;42.08;103417.56;5075045;28;20494;-72
2022/03/20 02:38:58;;;;;;;;;;;;;;;6.90;41.28;103416.53;5074273;28;19973;-73
2022/03/20 02:41:24;;;;;;;;;;;;;;;6.59;41.14;103407.59;5074473;28;20271;-73
2022/03/20 02:43:50;;;;;;;;;;;;;;;6.94;40.40;103407.06;5074453;28;20352;-72
2022/03/20 02:46:16;;;;;;;;;;;;;;;7.03;39.93;103397.06;5074426;28;20057;-72
2022/03/20 02:48:42;;;;;;;;;;;;;;;6.79;40.51;103389.97;5074666;28;19984;-73
2022/03/20 02:51:08;;;;;;;;;;;;;;;6.72;40.59;103393.53;5073976;28;19932;-73
2022/03/20 02:53:36;;;;;;;;;;;;;;;7.22;39.51;103380.41;5073873;28;19920;-73
2022/03/20 02:56:02;;;;;;;;;;;;;;;7.43;38.28;103372.47;5073703;28;19962;-72
2022/03/20 02:58:27;;;;;;;;;;;;;;;6.88;39.92;103382.63;5074034;28;20417;-73
2022/03/20 03:00:54;;;;;;;;;;;;;;;6.23;41.51;103382.13;5074335;28;19916;-72
2022/03/20 03:03:20;;;;;;;;;;;;;;;6.43;40.66;103379.84;5073693;28;19921;-72
2022/03/20 03:05:45;;;;;;;;;;;;;;;7.10;39.47;103379.16;5073297;28;19931;-72
2022/03/20 03:11:01;;;;;;;;;;;;;;;6.84;39.75;103370.53;5074111;28;20272;-73
2022/03/20 03:13:44;;;;;;;;;;;;;;;6.52;40.22;103368.84;5074069;28;19916;-73
2022/03/20 03:16:11;;;;;;;;;;;;;;;7.23;38.27;103361.34;5073784;28;20413;-73
2022/03/20 03:18:37;;;;;;;;;;;;;;;6.40;40.20;103358.63;5074183;28;19909;-74
2022/03/20 03:21:03;;;;;;;;;;;;;;;6.44;40.14;103363.53;5073457;28;19959;-73
2022/03/20 03:23:28;;;;;;;;;;;;;;;6.77;39.35;103358.78;5073532;28;19952;-73
2022/03/20 03:25:54;;;;;;;;;;;;;;;6.77;39.46;103364.16;5073601;28;20254;-73
2022/03/20 03:28:20;;;;;;;;;;;;;;;7.11;38.45;103356.53;5073688;28;19917;-73
2022/03/20 03:30:46;;;;;;;;;;;;;;;6.25;39.78;103345.03;5073939;28;19920;-74
2022/03/20 03:33:12;;;;;;;;;;;;;;;6.51;39.11;103332.13;5073105;28;19962;-72
2022/03/20 03:35:46;;;;;;;;;;;;;;;6.26;40.00;103328.69;5072857;28;19965;-72
2022/03/20 03:38:22;;;;;;;;;;;;;;;6.06;40.43;103324.75;5073496;28;20275;-72
2022/03/20 03:40:48;;;;;;;;;;;;;;;6.25;40.30;103318.09;5073058;28;19927;-73
2022/03/20 03:43:15;;;;;;;;;;;;;;;6.40;39.79;103326.28;5071759;28;19973;-73
2022/03/20 03:45:41;;;;;;;;;;;;;;;6.51;38.71;103328.56;5073523;28;19917;-73
2022/03/20 03:48:08;;;;;;;;;;;;;;;6.09;39.72;103337.00;5072863;28;19941;-74
2022/03/20 03:50:34;;;;;;;;;;;;;;;6.42;39.17;103327.78;5072859;28;19920;-73
2022/03/20 03:53:00;;;;;;;;;;;;;;;6.73;38.11;103325.91;5072636;28;19917;-72
2022/03/20 03:55:25;;;;;;;;;;;;;;;6.33;39.22;103318.91;5072720;28;20014;-73
2022/03/20 03:57:51;;;;;;;;;;;;;;;5.69;40.52;103324.53;5073394;28;19916;-74
2022/03/20 04:00:17;;;;;;;;;;;;;;;5.09;41.84;103307.91;5072805;28;19921;-73
2022/03/20 04:02:48;;;;;;;;;;;;;;;6.31;38.92;103304.75;5072432;28;19921;-73
2022/03/20 04:05:17;;;;;;;;;;;;;;;5.81;40.16;103298.06;5072451;28;19956;-73
2022/03/20 04:07:42;;;;;;;;;;;;;;;5.95;39.91;103300.03;5072741;28;20003;-72
2022/03/20 04:10:08;;;;;;;;;;;;;;;6.32;38.93;103282.16;5072551;28;20351;-72
2022/03/20 04:12:36;;;;;;;;;;;;;;;5.97;39.74;103293.44;5072944;28;19958;-73
2022/03/20 04:15:02;;;;;;;;;;;;;;;6.23;38.96;103293.16;5072535;28;19921;-75
2022/03/20 04:17:31;;;;;;;;;;;;;;;6.33;38.31;103288.38;5072489;28;19991;-72
2022/03/20 04:19:57;;;;;;;;;;;;;;;6.45;38.11;103286.13;5072239;28;19921;-72
2022/03/20 04:22:22;;;;;;;;;;;;;;;6.38;38.06;103281.44;5072554;28;19928;-72
2022/03/20 04:24:50;;;;;;;;;;;;;;;6.41;38.06;103277.56;5072732;28;19916;-73
2022/03/20 04:27:15;;;;;;;;;;;;;;;5.78;39.48;103275.00;5071785;28;19986;-74
2022/03/20 04:29:40;;;;;;;;;;;;;;;6.10;38.63;103265.94;5072291;28;20502;-72
2022/03/20 04:32:06;;;;;;;;;;;;;;;6.05;38.68;103271.00;5072074;28;19925;-73
2022/03/20 04:34:31;;;;;;;;;;;;;;;5.80;39.04;103269.44;5072300;28;19920;-73
2022/03/20 04:36:56;;;;;;;;;;;;;;;5.80;39.09;103262.19;5072616;28;20344;-73
2022/03/20 04:39:22;;;;;;;;;;;;;;;5.40;39.91;103257.72;5072373;28;19944;-73
2022/03/20 04:41:47;;;;;;;;;;;;;;;5.86;38.85;103258.81;5072185;28;19966;-74
2022/03/20 04:44:13;;;;;;;;;;;;;;;5.78;38.81;103261.53;5072249;28;19917;-73
2022/03/20 04:46:38;;;;;;;;;;;;;;;5.80;38.47;103250.56;5072366;28;19925;-73
2022/03/20 04:59:59;;;;;;;;;;;;;;;6.41;37.12;103234.41;5071936;28;19932;-73
2022/03/20 05:02:24;;;;;;;;;;;;;;;5.66;38.78;103235.97;5070031;28;19921;-76
2022/03/20 05:04:50;;;;;;;;;;;;;;;5.75;38.47;103236.81;5071096;28;19931;-74
2022/03/20 05:07:15;;;;;;;;;;;;;;;6.24;37.26;103239.06;5071408;28;20126;-73
2022/03/20 05:15:09;;;;;;;;;;;;;;;5.73;38.13;103228.91;5070763;28;20021;-75
2022/03/20 05:17:35;;;;;;;;;;;;;;;5.47;38.57;103222.91;5071528;28;19928;-73
2022/03/20 05:20:03;;;;;;;;;;;;;;;5.75;37.97;103218.78;5072484;28;20380;-72
2022/03/20 05:22:28;;;;;;;;;;;;;;;5.91;37.30;103207.91;5091908;28;19924;-72
2022/03/20 05:24:54;;;;;;;;;;;;;;;6.20;36.69;103215.34;5092619;28;20325;-73
2022/03/20 05:27:19;;;;;;;;;;;;;;;6.21;36.89;103204.38;5092077;28;19918;-73
2022/03/20 05:29:44;;;;;;;;;;;;;;;6.12;37.08;103199.22;5085575;28;20368;-73
2022/03/20 05:32:10;;;;;;;;;;;;;;;6.11;36.73;103198.38;5071211;28;19924;-74
2022/03/20 05:34:36;;;;;;;;;;;;;;;6.13;36.97;103195.50;5078069;28;19928;-74
2022/03/20 05:37:02;;;;;;;;;;;;;;;5.76;37.41;103203.44;5078999;28;19916;-73
2022/03/20 05:39:27;;;;;;;;;;;;;;;5.88;37.16;103191.28;5074760;28;19946;-73
2022/03/20 05:41:53;;;;;;;;;;;;;;;6.31;35.91;103187.97;5075343;28;20414;-73
2022/03/20 05:44:19;;;;;;;;;;;;;;;6.27;36.06;103184.81;5075480;28;19931;-75
2022/03/20 05:46:54;;;;;;;;;;;;;;;6.13;36.32;103188.25;5075419;28;19920;-73
2022/03/20 05:49:20;;;;;;;;;;;;;;;6.01;36.43;103183.47;5075259;28;20000;-73
2022/03/20 05:51:46;;;;;;;;;;;;;;;5.89;36.50;103182.19;5075589;28;19920;-74
2022/03/20 05:54:12;;;;;;;;;;;;;;;5.51;37.12;103189.22;5074907;28;19927;-72
2022/03/20 05:59:21;;;;;;;;;;;;;;;6.01;36.07;103191.56;5074372;28;19997;-73
2022/03/20 06:01:46;;;;;;;;;;;;;;;6.05;36.07;103187.47;5073825;28;19920;-72
2022/03/20 06:04:13;;;;;;;;;;;;;;;5.78;36.39;103183.41;5074083;28;19917;-73
2022/03/20 06:06:42;;;;;;;;;;;;;;;6.30;35.47;103189.00;5073211;28;20360;-73
2022/03/20 06:09:08;;;;;;;;;;;;;;;5.56;36.64;103191.41;5074212;28;19920;-74
2022/03/20 06:11:34;;;;;;;;;;;;;;;5.90;35.91;103179.31;5073893;28;19935;-73
2022/03/20 06:14:00;;;;;;;;;;;;;;;5.54;36.22;103177.28;5074148;28;19920;-73
2022/03/20 06:16:26;;;;;;;;;;;;;;;5.65;36.35;103179.56;5073783;28;19921;-73
2022/03/20 06:18:51;;;;;;;;;;;;;;;6.07;35.17;103177.34;5074525;28;20287;-73
2022/03/20 06:21:16;;;;;;;;;;;;;;;6.28;35.03;103181.06;5074662;28;19920;-73
2022/03/20 06:23:41;;;;;;;;;;;;;;;6.24;35.13;103177.06;5074743;28;20003;-73
2022/03/20 06:26:07;;;;;;;;;;;;;;;5.76;35.84;103187.28;5074750;28;19916;-73
2022/03/20 06:28:33;;;;;;;;;;;;;;;6.45;34.51;103176.41;5072464;28;19921;-74
2022/03/20 06:30:58;;;;;;;;;;;;;;;5.21;36.89;103177.38;5058366;28;19929;-73
2022/03/20 06:33:26;;;;;;;;;;;;;;;5.85;35.72;103176.28;5067401;28;19916;-73
2022/03/20 06:35:52;;;;;;;;;;;;;;;6.25;34.79;103173.34;5074363;28;19920;-72
2022/03/20 06:38:18;;;;;;;;;;;;;;;6.01;35.09;103175.38;5074148;28;19965;-74
2022/03/20 06:40:43;;;;;;;;;;;;;;;6.26;34.61;103179.59;5056107;28;19963;-71
2022/03/20 06:43:09;;;;;;;;;;;;;;;6.27;34.39;103187.50;5074274;28;19920;-74
2022/03/20 06:45:34;;;;;;;;;;;;;;;6.10;34.75;103179.69;5074509;28;20451;-73
2022/03/20 06:48:00;;;;;;;;;;;;;;;6.57;34.48;103174.13;5074339;28;19962;-74
2022/03/20 06:50:25;;;;;;;;;;;;;;;6.84;33.86;103177.09;5072071;28;19924;-73
2022/03/20 06:52:50;;;;;;;;;;;;;;;6.92;33.17;103170.75;5073814;28;20291;-72
2022/03/20 06:55:16;;;;;;;;;;;;;;;6.96;33.25;103162.13;5073821;28;19923;-73
2022/03/20 06:57:42;;;;;;;;;;;;;;;6.06;34.26;103156.81;5074306;28;19916;-73
2022/03/20 07:00:08;;;;;;;;;;;;;;;6.61;33.62;103152.00;5073045;28;20287;-73
2022/03/20 07:02:34;;;;;;;;;;;;;;;6.22;34.46;103148.63;5072539;28;19924;-75
2022/03/20 07:05:01;;;;;;;;;;;;;;;5.94;34.31;103142.06;5069992;28;19998;-77
2022/03/20 07:07:26;;;;;;;;;;;;;;;6.56;33.80;103140.91;5072907;28;19920;-77
2022/03/20 07:09:52;;;;;;;;;;;;;;;6.82;33.51;103138.66;5073375;28;20034;-77
2022/03/20 07:12:17;;;;;;;;;;;;;;;7.02;32.21;103137.09;5072937;28;19924;-77
2022/03/20 07:14:43;;;;;;;;;;;;;;;7.10;32.41;103128.94;5070205;28;19924;-76
2022/03/20 07:17:09;;;;;;;;;;;;;;;6.86;32.58;103121.06;5073521;28;19955;-76
2022/03/20 07:19:39;;;;;;;;;;;;;;;6.66;33.21;103119.91;5072943;28;20237;-75
2022/03/20 07:22:05;;;;;;;;;;;;;;;6.55;33.56;103103.34;5073270;28;19916;-77
2022/03/20 07:24:34;;;;;;;;;;;;;;;7.06;32.23;103116.00;5073403;28;19917;-76
2022/03/20 07:29:43;;;;;;;;;;;;;;;5.33;35.16;103106.00;5052939;28;19943;-76
2022/03/20 07:32:09;;;;;;;;;;;;;;;6.75;32.72;103099.09;5072158;28;19936;-76
2022/03/20 07:34:37;;;;;;;;;;;;;;;6.71;32.70;103087.84;5072932;28;19928;-78
2022/03/20 07:37:03;;;;;;;;;;;;;;;6.66;32.98;103090.25;5065771;28;19943;-76
2022/03/20 07:39:29;;;;;;;;;;;;;;;6.63;33.07;103092.47;5070750;28;19956;-76
2022/03/20 07:41:54;;;;;;;;;;;;;;;7.10;31.70;103087.59;5062871;28;19967;-76
2022/03/20 07:44:22;;;;;;;;;;;;;;;6.25;33.67;103087.09;5063301;28;19920;-77
2022/03/20 07:46:47;;;;;;;;;;;;;;;6.88;32.43;103089.34;5064318;28;20423;-77
2022/03/20 07:49:13;;;;;;;;;;;;;;;6.63;32.62;103079.00;5062411;28;19967;-77
2022/03/20 07:51:39;;;;;;;;;;;;;;;6.34;33.07;103082.47;5066333;28;20368;-75
2022/03/20 07:54:04;;;;;;;;;;;;;;;6.54;32.59;103078.22;5064219;28;19970;-77
2022/03/20 07:56:34;;;;;;;;;;;;;;;6.93;32.30;103075.31;5067636;28;19999;-76
2022/03/20 07:58:59;;;;;;;;;;;;;;;5.95;33.69;103066.44;5063662;28;19971;-77
2022/03/20 08:01:25;;;;;;;;;;;;;;;7.14;31.64;103070.84;5063608;28;19921;-77
2022/03/20 08:03:50;;;;;;;;;;;;;;;7.04;31.74;103067.59;5057400;28;19921;-76
2022/03/20 08:06:15;;;;;;;;;;;;;;;6.51;32.61;103058.88;5073620;28;20004;-77
2022/03/20 08:08:42;;;;;;;;;;;;;;;6.51;32.67;103070.50;5073852;28;19921;-75
2022/03/20 08:11:07;;;;;;;;;;;;;;;8.16;30.17;103067.00;5063340;28;19925;-78
2022/03/20 08:13:33;;;;;;;;;;;;;;;7.83;30.09;103055.88;5071421;28;19927;-76
2022/03/20 08:15:58;;;;;;;;;;;;;;;8.57;29.18;103056.31;5069776;28;20356;-79
2022/03/20 08:18:23;;;;;;;;;;;;;;;7.11;31.36;103046.06;5072041;28;19920;-76
2022/03/20 08:20:48;;;;;;;;;;;;;;;7.17;31.10;103048.03;5073335;28;19930;-77
2022/03/20 08:23:14;;;;;;;;;;;;;;;7.13;30.55;103063.75;5073931;28;19920;-78
2022/03/20 08:25:39;;;;;;;;;;;;;;;7.37;30.52;103057.22;5073874;28;19931;-76
2022/03/20 08:28:05;;;;;;;;;;;;;;;7.34;30.71;103051.34;5073385;28;19924;-75
2022/03/20 08:30:31;;;;;;;;;;;;;;;7.46;30.13;103055.25;5069485;28;19928;-76
2022/03/20 08:32:56;;;;;;;;;;;;;;;7.06;31.27;103053.91;5070477;28;19917;-76
2022/03/20 08:35:21;;;;;;;;;;;;;;;7.92;29.61;103048.44;5071111;28;19925;-76
2022/03/20 08:37:48;;;;;;;;;;;;;;;7.33;30.37;103047.81;5071640;28;19925;-75
2022/03/20 08:40:17;;;;;;;;;;;;;;;7.08;30.51;103041.06;5071804;28;19916;-76
2022/03/20 08:42:44;;;;;;;;;;;;;;;7.17;30.48;103042.63;5072097;28;20371;-74
2022/03/20 08:45:09;;;;;;;;;;;;;;;7.68;29.58;103025.34;5070892;28;20015;-76
2022/03/20 08:47:35;;;;;;;;;;;;;;;8.55;28.38;103023.22;5071619;28;20398;-76
2022/03/20 08:50:00;;;;;;;;;;;;;;;8.59;28.48;103005.53;5069436;28;19924;-76
2022/03/20 08:52:25;;;;;;;;;;;;;;;8.20;28.99;103014.19;5068826;28;19924;-76
2022/03/20 08:54:50;;;;;;;;;;;;;;;7.84;29.26;103008.03;5071869;28;19920;-74
2022/03/20 08:57:16;;;;;;;;;;;;;;;8.11;29.13;103010.78;5071311;28;19916;-75
2022/03/20 08:59:42;;;;;;;;;;;;;;;7.82;29.28;102997.44;5071490;28;19928;-76
2022/03/20 09:02:07;;;;;;;;;;;;;;;8.11;28.77;102981.03;5070793;28;19971;-76
2022/03/20 09:04:32;;;;;;;;;;;;;;;7.36;30.14;102958.34;5071475;28;19963;-77
2022/03/20 09:06:58;;;;;;;;;;;;;;;8.88;28.07;102951.13;5072733;28;19924;-77
2022/03/20 09:09:23;;;;;;;;;;;;;;;8.51;28.07;102960.53;5071287;28;19916;-76
2022/03/20 09:11:48;;;;;;;;;;;;;;;8.68;28.17;102950.25;5071274;28;19956;-76
2022/03/20 09:14:14;;;;;;;;;;;;;;;8.25;28.02;102948.72;5074464;28;19920;-75
2022/03/20 09:19:23;;;;;;;;;;;;;;;8.79;27.78;102953.22;5077560;28;20375;-75
2022/03/20 09:21:48;;;;;;;;;;;;;;;8.30;28.83;102957.09;5077246;28;19920;-76
2022/03/20 09:24:15;;;;;;;;;;;;;;;8.93;27.45;102944.13;5076994;28;19956;-75
2022/03/20 09:26:41;;;;;;;;;;;;;;;8.76;27.94;102941.94;5077086;28;19935;-77
2022/03/20 09:29:06;;;;;;;;;;;;;;;9.18;27.16;102925.44;5076953;28;20493;-76
2022/03/20 09:31:31;;;;;;;;;;;;;;;8.83;28.04;102919.28;5073449;28;19928;-76
2022/03/20 09:33:57;;;;;;;;;;;;;;;9.59;27.05;102907.19;5058482;28;20295;-75
2022/03/20 09:36:22;;;;;;;;;;;;;;;10.05;26.25;102912.59;5076177;28;20534;-76
2022/03/20 09:38:48;;;;;;;;;;;;;;;10.23;26.03;102912.75;5076735;28;19920;-77
2022/03/20 09:41:13;;;;;;;;;;;;;;;10.72;25.37;102923.06;5076233;28;20393;-75
2022/03/20 09:43:40;;;;;;;;;;;;;;;10.28;25.97;102909.41;5076941;28;19924;-76
2022/03/20 09:46:05;;;;;;;;;;;;;;;9.47;26.02;102902.56;5076425;28;20011;-76
2022/03/20 09:48:31;;;;;;;;;;;;;;;8.97;26.99;102893.09;5076629;28;20021;-76
2022/03/20 09:50:57;;;;;;;;;;;;;;;9.42;26.60;102895.09;5061183;28;19925;-74
2022/03/20 09:53:23;;;;;;;;;;;;;;;9.57;26.82;102893.00;5056090;28;19917;-74
2022/03/20 09:55:48;;;;;;;;;;;;;;;9.97;25.90;102880.25;5068397;28;20083;-75
2022/03/20 09:58:13;;;;;;;;;;;;;;;11.15;24.65;102874.38;5076560;28;19931;-71
2022/03/20 10:00:39;;;;;;;;;;;;;;;11.07;25.00;102880.06;5076817;28;19922;-76
2022/03/20 10:03:18;;;;;;;;;;;;;;;10.16;25.35;102865.81;5075331;28;19928;-75
2022/03/20 10:24:19;;;;;;;32.85;20.58;;;;;;;9.01;27.24;102856.44;5111158;27;20723;-73
2022/03/20 10:26:45;;;;;;;32.42;20.63;;;;;;;8.94;27.13;102867.25;5079904;28;20373;-74
2022/03/20 10:29:15;;;;;;;33.45;20.40;;;;;;;9.14;27.08;102864.59;5080921;28;20028;-72
2022/03/20 10:31:52;;;;;;;33.53;19.40;;;;;;;10.23;25.93;102854.94;5077864;28;20035;-73
2022/03/20 10:34:19;;;;;;;33.33;18.90;;;;;;;10.29;25.66;102840.53;5080118;28;20477;-74
2022/03/20 10:36:46;;;;;;;32.85;19.10;;;;;;;10.29;25.41;102844.09;5060362;28;20127;-71
2022/03/20 10:39:16;;;;;;;28.33;19.20;;;;;;;10.30;26.12;102853.03;5061146;28;20063;-75
2022/03/20 10:41:43;;;;;;;33.60;18.00;;;;;;;9.60;26.10;102842.97;5073633;28;20028;-73
2022/03/20 10:44:16;;;;;;;33.45;19.80;;;;;;;11.03;25.08;102829.94;5080474;28;20028;-71
2022/03/20 10:46:43;;;;;;;32.97;19.17;;;;;;;10.15;25.70;102819.91;5079959;28;20063;-72
2022/03/20 10:49:11;;;;;;;38.63;19.70;;;;;;;10.72;25.03;102811.75;5079400;28;20033;-73
2022/03/20 10:51:42;;;;;;;31.38;19.50;;;;;;;11.02;24.66;102814.72;5086761;28;20472;-73
2022/03/20 10:54:22;;;;;;;36.15;19.40;;;;;;;11.03;25.44;102814.47;5080753;28;20059;-73
2022/03/20 10:56:55;;;;;;;31.87;20.07;;;;;;;10.57;25.28;102824.78;5081965;28;20063;-74
2022/03/20 10:59:21;;;;;;;35.22;20.02;;;;;;;10.51;25.57;102831.91;5101625;28;20035;-73
2022/03/20 11:01:47;;;;;;;30.25;18.92;;;;;;;10.39;25.79;102830.06;5100593;28;20253;-74
2022/03/20 11:04:14;;;;;;;31.50;19.58;;;;;;;11.73;24.52;102823.34;5081529;28;20036;-73
2022/03/20 11:06:42;;;;;;;35.90;19.52;;;;;;;10.74;24.87;102834.09;5100741;28;20035;-74
2022/03/20 11:09:08;;;;;;;32.05;20.48;;;;;;;9.88;26.10;102827.28;5104117;28;20189;-71
2022/03/20 11:11:44;;;;;;;30.77;20.45;;;;;;;11.19;25.32;102843.84;5105255;28;20024;-73
2022/03/20 11:14:15;;;;;;;31.98;19.70;;;;;;;10.52;25.54;102841.72;5113502;28;20038;-74
2022/03/20 11:16:42;;;;;;;30.27;19.70;;;;;;;11.42;24.92;102841.34;5113156;28;20050;-73
2022/03/20 11:19:12;;;;;;;34.17;21.05;;;;;;;11.41;24.87;102839.66;5100410;28;20131;-75
2022/03/20 11:21:42;;;;;;;31.67;19.60;;;;;;;11.18;24.77;102833.16;5099909;27;20031;-72
2022/03/20 11:24:08;;;;;;;37.63;21.38;;;;;;;10.82;25.52;102828.41;5101158;28;20032;-72
2022/03/20 11:26:39;;;;;;;34.47;20.02;;;;;;;10.76;25.50;102818.41;5087031;28;20036;-74
2022/03/20 11:29:08;;;;;;;32.65;21.27;;;;;;;11.62;24.46;102816.75;5086566;28;20044;-73
2022/03/20 11:31:35;;;;;;;35.80;20.25;;;;;;;10.31;26.05;102812.13;5085757;28;20354;-72
2022/03/20 11:34:03;;;;;;;42.67;21.35;;;;;;;11.32;24.97;102819.25;5059461;28;20070;-73
2022/03/20 11:36:28;;;;;;;45.10;22.02;;;;;;;11.93;24.18;102803.03;5071689;28;20411;-75
2022/03/20 11:39:12;;;;;;;30.67;21.20;;;;;;;12.25;23.72;102804.53;5069637;28;20039;-75
2022/03/20 11:41:39;;;;;;;34.40;21.50;;;;;;;12.30;23.76;102804.66;5085447;28;20090;-75
2022/03/20 11:44:10;;;;;;;33.40;21.40;;;;;;;11.79;23.67;102803.41;5086098;28;20198;-74
2022/03/20 11:46:36;;;;;;;31.40;21.48;;;;;;;11.41;24.38;102806.25;5094226;28;20102;-75
2022/03/20 11:49:22;;;;;;;31.52;19.45;;;;;;;11.65;23.76;102801.88;5093721;28;20425;-74
2022/03/20 11:51:50;;;;;;;34.15;20.13;;;;;;;11.42;24.47;102802.44;5074131;28;20035;-75
2022/03/20 11:54:16;;;;;;;37.83;21.58;;;;;;;11.30;24.03;102804.22;5090384;28;20430;-75
2022/03/20 11:56:41;;;;;;;30.08;20.48;;;;;;;11.13;24.40;102812.09;5077639;28;20016;-73
2022/03/20 11:59:46;;;;;;;36.40;21.63;;;;;;;11.20;24.32;102803.88;5091579;28;20502;-75
2022/03/20 12:02:14;;;;;;;33.65;21.30;;;;;;;10.72;25.08;102800.91;5091259;28;20031;-74
2022/03/20 12:04:57;;;;;;;39.42;22.40;;;;;;;11.40;24.58;102802.69;5092140;28;20047;-74
2022/03/20 12:07:32;;;;;;;36.75;20.45;;;;;;;11.36;24.24;102798.75;5088783;28;20451;-74
2022/03/20 12:10:01;;;;;;;29.55;19.35;;;;;;;11.19;24.44;102794.94;5086092;28;20086;-75
2022/03/20 12:12:46;;;;;;;39.38;22.63;;;;;;;11.61;24.50;102781.63;5082648;28;20032;-76
2022/03/20 12:15:12;;;;;;;34.10;20.73;;;;;;;11.58;24.65;102782.06;5085941;28;20042;-73
2022/03/20 12:18:04;;;;;;;32.67;20.77;;;;;;;11.54;24.54;102768.94;5087896;28;20353;-75
2022/03/20 12:20:48;;;;;;;37.38;21.58;;;;;;;11.16;24.88;102776.34;5088513;28;20140;-69
2022/03/20 12:23:40;;;;;;;33.42;20.35;;;;;;;12.15;23.53;102768.03;5100101;28;20039;-73
2022/03/20 12:26:24;;;;;;;38.17;21.48;;;;;;;12.32;23.68;102760.88;5087982;28;20389;-73
2022/03/20 12:28:49;;;;;;;36.67;22.38;;;;;;;12.29;23.77;102773.09;5099405;28;20051;-69
2022/03/20 12:31:28;;;;;;;36.35;20.65;;;;;;;12.58;23.78;102766.00;5085319;28;20080;-72
2022/03/20 12:34:21;;;;;;;35.42;21.35;;;;;;;12.58;23.69;102754.28;5087715;28;20044;-73
2022/03/20 12:36:47;;;;;;;37.05;21.77;;;;;;;12.50;24.12;102760.88;5087156;28;20059;-73
2022/03/20 12:39:12;;;;;;;41.25;24.35;;;;;;;12.25;24.01;102760.16;5086846;28;20032;-73
2022/03/20 12:41:38;;;;;;;37.65;22.95;;;;;;;12.40;24.68;102755.97;5087629;28;20028;-71
2022/03/20 12:44:07;;;;;;;36.38;22.40;;;;;;;12.83;23.98;102750.31;5088033;28;20028;-74
2022/03/20 12:46:37;;;;;;;35.60;22.42;;;;;;;13.21;23.52;102748.03;5087302;28;20570;-72
2022/03/20 12:49:03;;;;;;;37.47;22.75;;;;;;;12.33;24.23;102746.22;5087294;28;20032;-74
2022/03/20 12:51:34;;;;;;;37.65;22.27;;;;;;;12.66;23.89;102738.44;5088098;28;20050;-75
2022/03/20 12:54:10;;;;;;;35.55;21.58;;;;;;;13.16;23.45;102736.19;5074863;28;20373;-77
2022/03/20 12:56:50;;;;;;;31.17;21.42;;;;;;;12.63;23.42;102736.19;5087641;28;20046;-76
2022/03/20 12:59:20;;;;;;;36.53;23.00;;;;;;;12.80;23.32;102726.28;5085817;28;20165;-74
2022/03/20 13:01:45;;;;;;;35.20;23.03;;;;;;;12.84;23.19;102718.47;5089853;28;20042;-76
2022/03/20 13:04:15;;;;;;;36.38;23.33;;;;;;;12.08;24.11;102715.59;5092298;28;20039;-75
2022/03/20 13:06:41;;;;;;;31.47;21.17;;;;;;;11.73;24.24;102707.22;5087500;28;20036;-75
2022/03/20 13:09:11;;;;;;;37.13;23.27;;;;;;;11.73;24.70;102717.28;5086868;28;20027;-74